ESDF/RNB METAR and TAF weather

Enter ICAO airport designator
Station Type Date Time Source
ESDF METAR 2021/05/14 23:20 UTC NOAA

ESDF 142320Z AUTO 15002KT 9999 FEW028/// SCT062/// OVC100/// 09/08 Q1004


Station Type Date Time Source
ESDF Decoded METAR 2021/05/14 23:20 UTC NOAA

Ronneby, Sweden (ESDF) 56-16N 015-17E 74M
May 14, 2021 - 07:20 PM EDT / 2021.05.14 2320 UTC
Wind: from the SSE (150 degrees) at 2 MPH (2 KT):0
Visibility: greater than 7 mile(s):0
Sky conditions: overcast
Temperature: 48 F (9 C)
Dew Point: 46 F (8 C)
Relative Humidity: 93%
Pressure (altimeter): 29.65 in. Hg (1004 hPa)
ob: ESDF 142320Z AUTO 15002KT 9999 FEW028/// SCT062/// OVC100/// 09/08 Q1004
cycle: 23

Station Type Date Time Source
ESDF TAF 2018/05/29 12:27 UTC NOAA

TAF TAF ESDF 291425Z 2912/2924 07008KT CAVOK
RMK MIL

Example: see airport list